createdAt,value
2023-04-01T00:02:01.650Z,98537.09
2023-04-01T00:04:29.494Z,98535.63
2023-04-01T00:06:56.937Z,98536.13
2023-04-01T00:09:24.426Z,98543.31
2023-04-01T00:11:52.159Z,98540.13
2023-04-01T00:14:19.659Z,98535.97
2023-04-01T00:16:47.163Z,98533.38
2023-04-01T00:19:16.095Z,98543.59
2023-04-01T00:21:43.450Z,98538.31
2023-04-01T00:24:10.803Z,98533.06
2023-04-01T00:26:38.558Z,98538.06
2023-04-01T00:29:06.497Z,98530.91
2023-04-01T00:31:33.969Z,98529.91
2023-04-01T00:34:01.743Z,98520.47
2023-04-01T00:36:29.554Z,98517.78
2023-04-01T00:38:59.804Z,98524.03
2023-04-01T00:41:27.518Z,98519.19
2023-04-01T00:44:22.014Z,98522.34
2023-04-01T00:46:49.811Z,98525.06
2023-04-01T00:49:19.549Z,98528.81
2023-04-01T00:51:49.178Z,98520.88
2023-04-01T00:54:17.730Z,98520.88
2023-04-01T00:56:51.045Z,98518.09
2023-04-01T00:59:24.610Z,98514.66
2023-04-01T01:01:52.328Z,98517.38
2023-04-01T01:04:26.468Z,98514.53
2023-04-01T01:07:31.650Z,98522.37
2023-04-01T01:10:15.842Z,98519.84
2023-04-01T01:12:46.329Z,98517.69
2023-04-01T01:15:18.963Z,98525.06
2023-04-01T01:17:49.038Z,98521.50
2023-04-01T01:20:43.166Z,98509.31
2023-04-01T01:23:22.840Z,98506.94
2023-04-01T01:26:08.548Z,98507.94
2023-04-01T01:28:44.871Z,98509.84
2023-04-01T01:31:18.488Z,98511.22
2023-04-01T01:34:12.421Z,98509.47
2023-04-01T01:36:41.445Z,98509.53
2023-04-01T01:39:09.725Z,98507.09
2023-04-01T01:41:39.215Z,98511.81
2023-04-01T01:44:08.228Z,98509.91
2023-04-01T01:46:36.543Z,98505.59
2023-04-01T01:49:04.937Z,98515.13
2023-04-01T01:51:32.731Z,98508.50
2023-04-01T01:54:00.521Z,98502.59
2023-04-01T01:56:29.500Z,98507.94
2023-04-01T01:59:04.612Z,98508.03
2023-04-01T02:01:34.532Z,98510.66
2023-04-01T02:04:03.730Z,98501.16
2023-04-01T02:06:33.877Z,98506.59
2023-04-01T02:09:04.021Z,98507.25
2023-04-01T02:11:46.623Z,98501.13
2023-04-01T02:14:16.887Z,98495.69
2023-04-01T02:17:13.005Z,98497.00
2023-04-01T02:19:47.441Z,98495.62
2023-04-01T02:22:19.487Z,98493.06
2023-04-01T02:24:47.278Z,98490.06
2023-04-01T02:27:14.651Z,98482.00
2023-04-01T02:29:42.108Z,98483.00
2023-04-01T02:32:10.363Z,98482.38
2023-04-01T02:34:38.362Z,98481.59
2023-04-01T02:37:05.772Z,98478.25
2023-04-01T02:39:33.487Z,98476.16
2023-04-01T02:42:01.312Z,98482.47
2023-04-01T02:44:30.082Z,98478.34
2023-04-01T02:46:57.936Z,98475.84
2023-04-01T02:49:25.958Z,98485.41
2023-04-01T02:51:53.396Z,98483.56
2023-04-01T02:54:21.138Z,98483.63
2023-04-01T02:56:48.559Z,98488.22
2023-04-01T02:59:16.062Z,98488.09
2023-04-01T03:01:43.816Z,98484.03
2023-04-01T03:04:11.194Z,98489.19
2023-04-01T03:06:38.567Z,98486.72
2023-04-01T03:09:06.272Z,98482.38
2023-04-01T03:11:33.646Z,98475.75
2023-04-01T03:14:01.059Z,98472.06
2023-04-01T03:16:28.927Z,98477.50
2023-04-01T03:18:59.841Z,98470.75
2023-04-01T03:21:27.527Z,98483.59
2023-04-01T03:23:55.387Z,98495.88
2023-04-01T03:26:22.813Z,98485.91
2023-04-01T03:28:50.316Z,98491.47
2023-04-01T03:31:18.025Z,98491.31
2023-04-01T03:33:45.922Z,98494.75
2023-04-01T03:36:13.884Z,98495.88
2023-04-01T03:38:42.624Z,98493.13
2023-04-01T03:41:14.334Z,98501.03
2023-04-01T03:43:42.539Z,98502.97
2023-04-01T03:46:10.604Z,98509.00
2023-04-01T03:48:38.183Z,98509.50
2023-04-01T03:51:09.368Z,98513.72
2023-04-01T03:53:37.003Z,98518.00
2023-04-01T03:56:07.071Z,98518.06
2023-04-01T03:58:36.062Z,98524.09
2023-04-01T04:01:03.715Z,98517.16
2023-04-01T04:03:31.829Z,98521.56
2023-04-01T04:05:59.492Z,98522.53
2023-04-01T04:08:26.898Z,98525.88
2023-04-01T04:10:57.822Z,98522.66
2023-04-01T04:13:25.728Z,98520.25
2023-04-01T04:15:55.658Z,98516.22
2023-04-01T04:18:23.370Z,98512.81
2023-04-01T04:20:52.168Z,98515.13
2023-04-01T04:23:20.268Z,98517.97
2023-04-01T04:25:59.077Z,98520.94
2023-04-01T04:28:27.954Z,98515.63
2023-04-01T04:30:57.058Z,98507.84
2023-04-01T04:33:25.427Z,98508.84
2023-04-01T04:35:56.171Z,98516.91
2023-04-01T04:38:24.081Z,98511.44
2023-04-01T04:40:51.513Z,98513.56
2023-04-01T04:43:19.743Z,98509.66
2023-04-01T04:45:47.214Z,98518.28
2023-04-01T04:48:21.150Z,98518.53
2023-04-01T04:50:50.832Z,98512.50
2023-04-01T04:53:19.769Z,98520.53
2023-04-01T04:55:48.689Z,98515.97
2023-04-01T04:58:17.840Z,98519.34
2023-04-01T05:00:46.225Z,98522.63
2023-04-01T05:03:16.663Z,98515.84
2023-04-01T05:05:51.385Z,98515.00
2023-04-01T05:08:19.094Z,98510.22
2023-04-01T05:10:48.139Z,98511.38
2023-04-01T05:13:15.817Z,98510.62
2023-04-01T05:15:43.820Z,98512.13
2023-04-01T05:18:11.273Z,98517.41
2023-04-01T05:20:38.939Z,98510.00
2023-04-01T05:23:06.735Z,98510.53
2023-04-01T05:25:34.345Z,98517.66
2023-04-01T05:28:02.814Z,98518.75
2023-04-01T05:30:30.997Z,98518.00
2023-04-01T05:32:59.056Z,98524.00
2023-04-01T05:35:26.560Z,98524.50
2023-04-01T05:37:54.338Z,98523.09
2023-04-01T05:40:22.031Z,98521.44
2023-04-01T05:42:49.447Z,98523.09
2023-04-01T05:45:17.394Z,98522.81
2023-04-01T05:47:45.507Z,98529.75
2023-04-01T05:50:12.966Z,98524.03
2023-04-01T05:52:40.819Z,98530.06
2023-04-01T05:55:08.687Z,98522.09
2023-04-01T05:57:36.231Z,98530.44
2023-04-01T06:00:05.687Z,98525.91
2023-04-01T06:02:40.203Z,98528.31
2023-04-01T06:05:29.216Z,98528.09
2023-04-01T06:08:00.378Z,98526.59
2023-04-01T06:10:51.768Z,98520.16
2023-04-01T06:13:38.023Z,98524.56
2023-04-01T06:16:10.686Z,98528.03
2023-04-01T06:19:06.401Z,98514.53
2023-04-01T06:22:05.626Z,98514.56
2023-04-01T06:24:52.465Z,98514.47
2023-04-01T06:27:48.351Z,98516.63
2023-04-01T06:30:39.700Z,98519.34
2023-04-01T06:33:31.175Z,98515.03
2023-04-01T06:36:05.492Z,98517.88
2023-04-01T06:38:48.502Z,98520.28
2023-04-01T06:41:30.726Z,98533.38
2023-04-01T06:44:00.913Z,98531.72
2023-04-01T06:46:34.780Z,98526.62
2023-04-01T06:49:09.911Z,98522.09
2023-04-01T06:51:59.395Z,98526.19
2023-04-01T06:54:39.807Z,98537.31
2023-04-01T06:57:42.475Z,98534.53
2023-04-01T07:00:34.645Z,98527.53
2023-04-01T07:03:18.156Z,98531.59
2023-04-01T07:05:46.301Z,98533.28
2023-04-01T07:08:19.578Z,98533.25
2023-04-01T07:11:02.977Z,98534.84
2023-04-01T07:13:41.921Z,98524.91
2023-04-01T07:16:16.909Z,98534.53
2023-04-01T07:18:49.736Z,98530.78
2023-04-01T07:21:50.377Z,98534.94
2023-04-01T07:24:39.090Z,98532.16
2023-04-01T07:27:11.307Z,98530.16
2023-04-01T07:29:38.974Z,98529.47
2023-04-01T07:32:26.787Z,98539.00
2023-04-01T07:35:08.717Z,98535.19
2023-04-01T07:37:43.738Z,98529.59
2023-04-01T07:40:20.397Z,98531.19
2023-04-01T07:43:16.803Z,98531.00
2023-04-01T07:46:02.024Z,98519.91
2023-04-01T07:48:48.126Z,98522.41
2023-04-01T07:51:21.265Z,98519.50
2023-04-01T07:53:52.316Z,98518.28
2023-04-01T07:56:31.342Z,98526.91
2023-04-01T07:59:11.441Z,98528.91
2023-04-01T08:02:03.859Z,98533.25
2023-04-01T08:04:51.169Z,98526.38
2023-04-01T08:07:21.914Z,98538.00
2023-04-01T08:10:09.479Z,98537.66
2023-04-01T08:13:00.542Z,98540.19
2023-04-01T08:15:58.987Z,98528.06
2023-04-01T08:18:59.015Z,98533.59
2023-04-01T08:21:30.023Z,98544.91
2023-04-01T08:23:59.248Z,98535.25
2023-04-01T08:26:43.766Z,98538.19
2023-04-01T08:29:13.033Z,98530.37
2023-04-01T08:32:09.758Z,98536.09
2023-04-01T08:34:42.599Z,98537.78
2023-04-01T08:37:18.461Z,98534.56
2023-04-01T08:39:53.665Z,98536.22
2023-04-01T08:42:51.452Z,98536.94
2023-04-01T08:45:31.670Z,98538.31
2023-04-01T08:48:30.920Z,98538.78
2023-04-01T08:51:35.990Z,98535.91
2023-04-01T08:54:14.150Z,98536.94
2023-04-01T08:56:55.191Z,98545.37
2023-04-01T08:59:44.032Z,98539.38
2023-04-01T09:02:52.463Z,98534.91
2023-04-01T09:05:39.410Z,98527.50
2023-04-01T09:08:39.810Z,98528.50
2023-04-01T09:11:29.498Z,98522.03
2023-04-01T09:14:22.968Z,98523.66
2023-04-01T09:17:01.213Z,98524.28
2023-04-01T09:19:47.338Z,98533.69
2023-04-01T09:22:52.750Z,98529.97
2023-04-01T09:25:24.489Z,98534.16
2023-04-01T09:27:55.487Z,98543.19
2023-04-01T09:30:42.475Z,98524.81
2023-04-01T09:33:52.100Z,98519.47
2023-04-01T09:36:54.108Z,98528.47
2023-04-01T09:39:30.877Z,98523.69
2023-04-01T09:42:08.978Z,98523.78
2023-04-01T09:44:50.266Z,98528.38
2023-04-01T09:47:29.066Z,98526.56
2023-04-01T09:50:07.953Z,98533.62
2023-04-01T09:53:05.690Z,98540.25
2023-04-01T09:56:08.891Z,98535.03
2023-04-01T09:59:03.253Z,98544.34
2023-04-01T10:01:44.090Z,98535.38
2023-04-01T10:04:34.148Z,98540.63
2023-04-01T10:07:29.213Z,98541.62
2023-04-01T10:10:09.330Z,98540.53
2023-04-01T10:13:04.614Z,98539.97
2023-04-01T10:15:52.057Z,98540.09
2023-04-01T10:18:19.977Z,98541.12
2023-04-01T10:21:19.815Z,98536.31
2023-04-01T10:23:50.851Z,98542.06
2023-04-01T10:26:50.235Z,98538.34
2023-04-01T10:29:43.139Z,98540.00
2023-04-01T10:32:22.938Z,98539.03
2023-04-01T10:35:29.128Z,98533.25
2023-04-01T10:37:56.795Z,98550.78
2023-04-01T10:40:38.826Z,98530.53
2023-04-01T10:43:40.248Z,98535.28
2023-04-01T10:46:41.355Z,98532.16
2023-04-01T10:49:25.238Z,98542.44
2023-04-01T10:52:30.055Z,98539.75
2023-04-01T10:55:13.761Z,98536.75
2023-04-01T10:58:12.168Z,98527.28
2023-04-01T11:01:05.709Z,98531.44
2023-04-01T11:04:00.087Z,98520.94
2023-04-01T11:06:37.733Z,98534.75
2023-04-01T11:09:31.701Z,98523.03
2023-04-01T11:12:24.802Z,98535.09
2023-04-01T11:14:55.455Z,98527.28
2023-04-01T11:17:31.849Z,98527.50
2023-04-01T11:20:28.449Z,98534.44
2023-04-01T11:23:10.634Z,98527.34
2023-04-01T11:26:06.024Z,98522.78
2023-04-01T11:28:58.554Z,98520.16
2023-04-01T11:31:32.869Z,98516.59
2023-04-01T11:34:24.460Z,98516.34
2023-04-01T11:37:40.174Z,98510.88
2023-04-01T11:40:28.184Z,98520.97
2023-04-01T11:43:06.556Z,98523.75
2023-04-01T11:45:51.864Z,98519.41
2023-04-01T11:48:53.859Z,98524.16
2023-04-01T11:51:21.775Z,98531.56
2023-04-01T11:54:11.632Z,98538.69
2023-04-01T11:57:00.888Z,98532.66
2023-04-01T11:59:41.258Z,98529.50
2023-04-01T12:02:13.378Z,98528.69
2023-04-01T12:05:03.395Z,98534.47
2023-04-01T12:07:49.333Z,98524.63
2023-04-01T12:10:20.984Z,98532.22
2023-04-01T12:13:06.776Z,98532.22
2023-04-01T12:16:16.321Z,98522.50
2023-04-01T12:18:49.407Z,98522.00
2023-04-01T12:21:35.414Z,98534.62
2023-04-01T12:24:16.171Z,98524.66
2023-04-01T12:26:49.818Z,98529.87
2023-04-01T12:29:35.375Z,98528.16
2023-04-01T12:32:29.235Z,98531.19
2023-04-01T12:35:16.643Z,98531.56
2023-04-01T12:37:53.001Z,98525.59
2023-04-01T12:40:58.068Z,98523.03
2023-04-01T12:43:46.185Z,98534.41
2023-04-01T12:46:54.018Z,98530.03
2023-04-01T12:49:36.798Z,98540.94
2023-04-01T12:52:05.193Z,98521.34
2023-04-01T12:54:48.016Z,98533.66
2023-04-01T12:57:25.684Z,98534.16
2023-04-01T13:00:12.223Z,98532.50
2023-04-01T13:03:07.596Z,98521.78
2023-04-01T13:05:41.294Z,98522.72
2023-04-01T13:08:14.766Z,98523.44
2023-04-01T13:11:10.784Z,98525.62
2023-04-01T13:14:05.667Z,98514.25
2023-04-01T13:16:40.736Z,98522.34
2023-04-01T13:19:22.601Z,98519.22
2023-04-01T13:22:22.776Z,98526.00
2023-04-01T13:25:02.352Z,98523.97
2023-04-01T13:28:00.301Z,98523.03
2023-04-01T13:30:36.255Z,98519.78
2023-04-01T13:33:31.001Z,98528.84
2023-04-01T13:36:07.506Z,98523.53
2023-04-01T13:38:54.819Z,98525.31
2023-04-01T13:41:30.433Z,98530.84
2023-04-01T13:44:22.560Z,98523.19
2023-04-01T13:47:21.243Z,98528.88
2023-04-01T13:50:08.781Z,98533.94
2023-04-01T13:52:45.434Z,98537.25
2023-04-01T13:55:31.280Z,98559.00
2023-04-01T13:58:13.610Z,98563.41
2023-04-01T14:00:53.183Z,98555.53
2023-04-01T14:03:46.090Z,98569.97
2023-04-01T14:06:32.460Z,98577.84
2023-04-01T14:09:27.590Z,98566.34
2023-04-01T14:12:10.632Z,98560.34
2023-04-01T14:14:57.041Z,98553.16
2023-04-01T14:17:50.977Z,98555.47
2023-04-01T14:20:24.133Z,98544.34
2023-04-01T14:23:22.515Z,98530.31
2023-04-01T14:25:50.067Z,98533.00
2023-04-01T14:28:42.761Z,98541.97
2023-04-01T14:31:16.467Z,98529.97
2023-04-01T14:34:02.216Z,98527.34
2023-04-01T14:36:44.805Z,98524.22
2023-04-01T14:39:30.744Z,98521.44
2023-04-01T14:42:24.520Z,98525.25
2023-04-01T14:45:09.834Z,98526.03
2023-04-01T14:48:01.053Z,98520.22
2023-04-01T14:50:30.682Z,98514.31
2023-04-01T14:53:39.878Z,98523.44
2023-04-01T14:56:07.337Z,98509.97
2023-04-01T14:58:47.091Z,98515.28
2023-04-01T15:01:17.459Z,98510.97
2023-04-01T15:03:54.260Z,98509.63
2023-04-01T15:06:46.077Z,98507.03
2023-04-01T15:09:32.114Z,98516.16
2023-04-01T15:12:13.921Z,98529.41
2023-04-01T15:14:50.806Z,98526.72
2023-04-01T15:17:24.189Z,98519.97
2023-04-01T15:20:11.265Z,98517.97
2023-04-01T15:22:47.836Z,98518.59
2023-04-01T15:25:23.635Z,98520.53
2023-04-01T15:28:00.846Z,98516.47
2023-04-01T15:30:46.732Z,98525.97
2023-04-01T15:33:26.401Z,98530.72
2023-04-01T15:36:15.419Z,98525.13
2023-04-01T15:38:48.867Z,98532.56
2023-04-01T15:41:17.948Z,98530.87
2023-04-01T15:43:50.032Z,98538.44
2023-04-01T15:46:20.718Z,98536.34
2023-04-01T15:49:26.539Z,98539.91
2023-04-01T15:52:13.174Z,98531.84
2023-04-01T15:54:40.563Z,98534.44
2023-04-01T15:57:15.592Z,98536.28
2023-04-01T15:59:55.967Z,98535.44
2023-04-01T16:03:01.632Z,98543.06
2023-04-01T16:06:01.394Z,98539.66
2023-04-01T16:09:00.044Z,98542.88
2023-04-01T16:11:49.366Z,98540.16
2023-04-01T16:14:31.014Z,98548.25
2023-04-01T16:17:30.725Z,98550.47
2023-04-01T16:20:10.670Z,98560.09
2023-04-01T16:22:55.990Z,98557.88
2023-04-01T16:25:35.150Z,98556.91
2023-04-01T16:28:32.308Z,98555.72
2023-04-01T16:30:59.697Z,98556.47
2023-04-01T16:33:42.168Z,98555.34
2023-04-01T16:36:23.853Z,98560.28
2023-04-01T16:39:24.802Z,98556.69
2023-04-01T16:42:07.268Z,98561.09
2023-04-01T16:44:57.156Z,98565.50
2023-04-01T16:47:32.339Z,98573.78
2023-04-01T16:50:28.985Z,98577.91
2023-04-01T16:53:01.752Z,98573.69
2023-04-01T16:55:36.709Z,98574.00
2023-04-01T16:58:04.265Z,98576.81
2023-04-01T17:00:40.493Z,98577.03
2023-04-01T17:03:07.824Z,98576.75
2023-04-01T17:05:57.757Z,98587.50
2023-04-01T17:09:00.338Z,98584.63
2023-04-01T17:11:33.146Z,98584.63
2023-04-01T17:14:22.311Z,98593.38
2023-04-01T17:17:14.696Z,98591.41
2023-04-01T17:20:10.098Z,98595.16
2023-04-01T17:22:56.594Z,98596.34
2023-04-01T17:25:39.452Z,98603.03
2023-04-01T17:28:28.306Z,98610.12
2023-04-01T17:31:22.634Z,98607.75
2023-04-01T17:34:01.317Z,98607.44
2023-04-01T17:36:53.644Z,98612.25
2023-04-01T17:39:24.512Z,98616.13
2023-04-01T17:42:24.425Z,98616.25
2023-04-01T17:45:01.179Z,98614.16
2023-04-01T17:48:07.050Z,98628.47
2023-04-01T17:50:48.790Z,98624.06
2023-04-01T17:53:20.732Z,98628.56
2023-04-01T17:56:14.875Z,98630.63
2023-04-01T17:58:48.384Z,98632.72
2023-04-01T18:01:44.109Z,98635.34
2023-04-01T18:04:49.096Z,98638.81
2023-04-01T18:07:20.069Z,98642.28
2023-04-01T18:10:12.303Z,98648.75
2023-04-01T18:13:10.734Z,98651.44
2023-04-01T18:16:08.056Z,98657.53
2023-04-01T18:18:54.883Z,98659.63
2023-04-01T18:21:37.934Z,98669.75
2023-04-01T18:24:14.398Z,98667.84
2023-04-01T18:26:45.544Z,98675.72
2023-04-01T18:29:29.269Z,98685.47
2023-04-01T18:32:29.852Z,98690.94
2023-04-01T18:35:34.798Z,98686.06
2023-04-01T18:38:30.758Z,98700.50
2023-04-01T18:41:27.964Z,98700.72
2023-04-01T18:44:06.179Z,98703.59
2023-04-01T18:46:59.389Z,98706.28
2023-04-01T18:49:44.397Z,98712.25
2023-04-01T18:52:28.631Z,98711.59
2023-04-01T18:55:02.354Z,98712.37
2023-04-01T18:57:48.820Z,98709.91
2023-04-01T19:00:23.628Z,98705.47
2023-04-01T19:03:09.797Z,98712.41
2023-04-01T19:05:39.852Z,98711.88
2023-04-01T19:08:30.739Z,98712.81
2023-04-01T19:11:18.550Z,98713.59
2023-04-01T19:13:52.121Z,98713.91
2023-04-01T19:16:38.580Z,98713.69
2023-04-01T19:19:33.692Z,98719.63
2023-04-01T19:22:55.898Z,98704.50
2023-04-01T19:25:39.185Z,98708.59
2023-04-01T19:28:27.165Z,98709.72
2023-04-01T19:31:01.050Z,98710.81
2023-04-01T19:33:53.095Z,98714.94
2023-04-01T19:36:32.663Z,98718.28
2023-04-01T19:39:17.114Z,98716.78
2023-04-01T19:42:20.012Z,98720.81
2023-04-01T19:45:19.586Z,98726.91
2023-04-01T19:48:25.965Z,98734.13
2023-04-01T19:50:53.705Z,98731.16
2023-04-01T19:53:42.243Z,98732.69
2023-04-01T19:56:17.982Z,98736.63
2023-04-01T19:59:03.842Z,98737.59
2023-04-01T20:02:01.457Z,98734.09
2023-04-01T20:04:45.292Z,98742.31
2023-04-01T20:07:32.713Z,98741.81
2023-04-01T20:10:20.453Z,98744.63
2023-04-01T20:13:02.706Z,98750.72
2023-04-01T20:15:42.593Z,98746.50
2023-04-01T20:18:33.834Z,98746.25
2023-04-01T20:21:06.507Z,98746.31
2023-04-01T20:23:46.415Z,98743.44
2023-04-01T20:26:15.281Z,98744.25
2023-04-01T20:28:42.616Z,98744.06
2023-04-01T20:31:21.492Z,98737.75
2023-04-01T20:34:04.517Z,98739.47
2023-04-01T20:36:38.232Z,98747.84
2023-04-01T20:39:12.313Z,98756.31
2023-04-01T20:42:04.041Z,98751.16
2023-04-01T20:44:51.253Z,98760.94
2023-04-01T20:47:26.245Z,98771.19
2023-04-01T20:50:00.405Z,98770.84
2023-04-01T20:52:37.518Z,98777.72
2023-04-01T20:55:23.411Z,98770.38
2023-04-01T20:58:06.529Z,98774.72
2023-04-01T21:00:52.607Z,98771.25
2023-04-01T21:03:44.327Z,98785.25
2023-04-01T21:06:19.069Z,98774.19
2023-04-01T21:08:58.618Z,98772.25
2023-04-01T21:11:34.314Z,98774.19
2023-04-01T21:14:33.339Z,98774.87
2023-04-01T21:17:17.411Z,98781.56
2023-04-01T21:19:55.175Z,98787.78
2023-04-01T21:22:34.984Z,98782.37
2023-04-01T21:25:29.372Z,98785.97
2023-04-01T21:28:00.022Z,98790.53
2023-04-01T21:30:42.366Z,98787.69
2023-04-01T21:33:42.950Z,98795.19
2023-04-01T21:36:21.177Z,98792.00
2023-04-01T21:39:14.011Z,98797.22
2023-04-01T21:41:50.706Z,98795.22
2023-04-01T21:44:23.403Z,98800.97
2023-04-01T21:46:50.642Z,98800.81
2023-04-01T21:49:42.970Z,98803.84
2023-04-01T21:52:47.330Z,98807.97
2023-04-01T21:55:21.192Z,98810.63
2023-04-01T21:58:00.800Z,98804.84
2023-04-01T22:00:37.750Z,98816.84
2023-04-01T22:03:40.880Z,98818.13
2023-04-01T22:06:39.514Z,98812.13
2023-04-01T22:09:16.182Z,98817.78
2023-04-01T22:11:45.954Z,98812.28
2023-04-01T22:14:21.247Z,98811.19
2023-04-01T22:16:55.063Z,98810.88
2023-04-01T22:19:37.338Z,98806.50
2023-04-01T22:22:46.461Z,98803.69
2023-04-01T22:25:23.947Z,98812.53
2023-04-01T22:27:56.896Z,98808.22
2023-04-01T22:30:28.574Z,98814.63
2023-04-01T22:33:07.102Z,98813.50
2023-04-01T22:35:43.267Z,98815.47
2023-04-01T22:38:14.385Z,98811.75
2023-04-01T22:41:02.504Z,98813.25
2023-04-01T22:43:41.389Z,98819.41
2023-04-01T22:46:42.289Z,98831.88
2023-04-01T22:49:18.655Z,98829.63
2023-04-01T22:51:57.955Z,98833.94
2023-04-01T22:54:31.351Z,98836.50
2023-04-01T22:57:04.916Z,98836.59
2023-04-01T22:59:43.628Z,98833.03
2023-04-01T23:02:22.920Z,98840.28
2023-04-01T23:04:57.110Z,98846.41
2023-04-01T23:07:50.189Z,98846.31
2023-04-01T23:10:22.477Z,98859.81
2023-04-01T23:12:53.370Z,98863.16
2023-04-01T23:15:21.411Z,98873.75
2023-04-01T23:18:16.976Z,98877.28
2023-04-01T23:20:59.713Z,98873.34
2023-04-01T23:23:45.546Z,98883.59
2023-04-01T23:26:19.621Z,98881.25
2023-04-01T23:28:55.120Z,98883.34
2023-04-01T23:31:31.745Z,98884.44
2023-04-01T23:34:01.947Z,98886.88
2023-04-01T23:36:31.446Z,98887.38
2023-04-01T23:39:02.123Z,98885.38
2023-04-01T23:41:31.573Z,98896.34
2023-04-01T23:44:09.320Z,98887.41
2023-04-01T23:46:37.715Z,98889.97
2023-04-01T23:49:06.759Z,98897.66
2023-04-01T23:51:39.975Z,98903.25
2023-04-01T23:54:29.668Z,98893.50
2023-04-01T23:56:57.626Z,98903.69
2023-04-01T23:59:30.785Z,98900.00
